Time;durP1;ratioP1;P1;durP2;ratioP2;P2;SDS_P1;SDS_P2;PMS_P1;PMS_P2;Temp;Humidity;BMP_temperature;BMP_pressure;BME280_temperature;BME280_humidity;BME280_pressure;Samples;Min_cycle;Max_cycle;Signal;HPM_P1;HPM_P2
2022/04/22 00:00:59;;;;;;;59.38;42.65;;;;;;;7.36;100.00;98514.41;2065865;28;20200;-67
2022/04/22 00:02:00;;;;;;;66.00;44.05;;;;;;;7.37;100.00;98519.41;2065503;28;20193;-67
2022/04/22 00:03:04;;;;;;;62.70;44.80;;;;;;;7.35;100.00;98512.84;2057444;28;20206;-67
2022/04/22 00:04:06;;;;;;;61.40;43.10;;;;;;;7.32;100.00;98514.19;2066436;28;20663;-67
2022/04/22 00:05:08;;;;;;;61.87;43.20;;;;;;;7.33;100.00;98515.00;2065477;28;20620;-68
2022/04/22 00:06:11;;;;;;;58.70;41.78;;;;;;;7.31;100.00;98515.28;2065167;28;20231;-67
2022/04/22 00:07:12;;;;;;;56.78;42.28;;;;;;;7.30;100.00;98510.28;2065532;28;20276;-68
2022/04/22 00:08:14;;;;;;;57.10;42.42;;;;;;;7.27;100.00;98503.66;2065752;28;20201;-68
2022/04/22 00:09:16;;;;;;;58.10;42.03;;;;;;;7.26;100.00;98503.94;2065421;28;20200;-67
2022/04/22 00:10:19;;;;;;;58.45;43.15;;;;;;;7.25;100.00;98505.81;2057511;28;20196;-67
2022/04/22 00:11:32;;;;;;;59.35;42.65;;;;;;;7.24;100.00;98496.28;2065634;28;20227;-67
2022/04/22 00:12:33;;;;;;;60.15;43.33;;;;;;;7.22;100.00;98506.41;2074270;28;20632;-67
2022/04/22 00:13:40;;;;;;;61.78;43.10;;;;;;;7.21;100.00;98494.22;2065429;28;20197;-67
2022/04/22 00:14:42;;;;;;;60.90;43.13;;;;;;;7.19;100.00;98493.69;2066378;28;20177;-67
2022/04/22 00:15:44;;;;;;;60.72;43.72;;;;;;;7.16;100.00;98491.63;2065425;28;20568;-67
2022/04/22 00:16:46;;;;;;;59.08;42.28;;;;;;;7.20;100.00;98499.78;2065672;28;20190;-67
2022/04/22 00:17:49;;;;;;;63.17;43.80;;;;;;;7.20;100.00;98499.78;2074150;28;20250;-68
2022/04/22 00:18:50;;;;;;;57.63;42.95;;;;;;;7.16;100.00;98499.56;2074272;28;20215;-67
2022/04/22 00:19:52;;;;;;;64.20;44.17;;;;;;;7.18;100.00;98492.09;2065273;28;20207;-68
2022/04/22 00:20:53;;;;;;;62.97;43.55;;;;;;;7.19;100.00;98496.34;2064751;28;20613;-68
2022/04/22 00:21:56;;;;;;;62.95;45.67;;;;;;;7.23;100.00;98493.91;2057300;28;20213;-67
2022/04/22 00:22:59;;;;;;;66.22;43.90;;;;;;;7.24;100.00;98490.97;2057472;28;20204;-67
2022/04/22 00:24:01;;;;;;;63.40;42.78;;;;;;;7.31;100.00;98496.72;2065846;28;20616;-67
2022/04/22 00:25:02;;;;;;;59.03;43.13;;;;;;;7.28;100.00;98489.31;2065031;28;20197;-67
2022/04/22 00:26:04;;;;;;;60.58;43.28;;;;;;;7.29;100.00;98488.22;2065478;28;20212;-67
2022/04/22 00:27:05;;;;;;;60.50;43.90;;;;;;;7.29;100.00;98482.91;2074132;28;20192;-67
2022/04/22 00:28:08;;;;;;;57.78;43.72;;;;;;;7.31;100.00;98475.47;2065540;28;20193;-67
2022/04/22 00:29:11;;;;;;;62.67;43.33;;;;;;;7.32;100.00;98478.91;2065740;28;20203;-66
2022/04/22 00:30:13;;;;;;;56.55;42.50;;;;;;;7.29;100.00;98482.91;2073897;28;20551;-66
2022/04/22 00:31:14;;;;;;;60.53;43.33;;;;;;;7.26;100.00;98477.41;2065347;28;20212;-67
2022/04/22 00:32:15;;;;;;;60.05;43.97;;;;;;;7.25;100.00;98478.50;2057297;28;20251;-67
2022/04/22 00:33:17;;;;;;;61.60;42.93;;;;;;;7.22;100.00;98471.91;2065624;28;20193;-67
2022/04/22 00:34:18;;;;;;;60.88;43.40;;;;;;;7.23;100.00;98473.47;2065340;28;20212;-67
2022/04/22 00:35:20;;;;;;;61.37;42.93;;;;;;;7.21;100.00;98470.34;2065480;28;20197;-67
2022/04/22 00:36:22;;;;;;;61.03;43.33;;;;;;;7.20;100.00;98474.03;2064603;28;20216;-67
2022/04/22 00:37:24;;;;;;;63.58;43.53;;;;;;;7.20;100.00;98471.38;2057452;28;20225;-67
2022/04/22 00:38:25;;;;;;;58.40;42.00;;;;;;;7.18;100.00;98476.19;2057275;28;20640;-67
2022/04/22 00:39:26;;;;;;;60.47;43.63;;;;;;;7.19;100.00;98479.63;2065373;28;20189;-67
2022/04/22 00:40:27;;;;;;;62.95;42.88;;;;;;;7.19;100.00;98475.13;2065224;28;20216;-67
2022/04/22 00:41:29;;;;;;;56.13;42.10;;;;;;;7.16;100.00;98472.25;2065365;28;20189;-67
2022/04/22 00:42:31;;;;;;;60.00;43.00;;;;;;;7.16;100.00;98464.31;2065347;28;20605;-67
2022/04/22 00:43:41;;;;;;;62.40;42.83;;;;;;;7.17;100.00;98473.84;2065647;28;20228;-67
2022/04/22 00:44:44;;;;;;;57.72;41.42;;;;;;;7.15;100.00;98476.78;2065263;28;20185;-67
2022/04/22 00:45:45;;;;;;;58.78;41.90;;;;;;;7.15;100.00;98476.00;2057431;28;20201;-67
2022/04/22 00:46:47;;;;;;;55.78;41.33;;;;;;;7.11;100.00;98462.50;2057304;28;20194;-67
2022/04/22 00:47:47;;;;;;;66.03;43.55;;;;;;;7.14;100.00;98477.06;2057202;28;20194;-67
2022/04/22 00:48:49;;;;;;;58.07;42.60;;;;;;;7.13;100.00;98467.53;2065406;28;20217;-67
2022/04/22 00:49:52;;;;;;;61.10;42.75;;;;;;;7.13;100.00;98468.31;2064833;28;20254;-67
2022/04/22 00:50:54;;;;;;;55.08;41.78;;;;;;;7.14;100.00;98477.06;2064734;28;20703;-68
2022/04/22 00:51:58;;;;;;;61.25;42.47;;;;;;;7.13;100.00;98462.22;2073801;28;20180;-68
2022/04/22 00:53:00;;;;;;;58.00;43.20;;;;;;;7.14;100.00;98469.91;2065280;28;20288;-67
2022/04/22 00:54:02;;;;;;;61.75;42.83;;;;;;;7.14;100.00;98471.75;2065631;28;20188;-67
2022/04/22 00:55:06;;;;;;;62.30;42.75;;;;;;;7.11;100.00;98461.72;2074123;28;20189;-67
2022/04/22 00:56:10;;;;;;;59.00;42.33;;;;;;;7.11;100.00;98467.81;2073966;28;20334;-67
2022/04/22 00:57:15;;;;;;;58.55;43.28;;;;;;;7.10;100.00;98471.53;2065221;28;20227;-67
2022/04/22 00:58:16;;;;;;;61.25;44.05;;;;;;;7.08;100.00;98461.22;2057510;28;20209;-67
2022/04/22 00:59:18;;;;;;;62.17;44.20;;;;;;;7.09;100.00;98473.41;2065503;28;20193;-67
2022/04/22 01:00:21;;;;;;;61.90;44.25;;;;;;;7.09;100.00;98465.44;2065082;28;20223;-67
2022/04/22 01:01:22;;;;;;;57.42;44.05;;;;;;;7.09;100.00;98467.31;2065357;28;20185;-67
2022/04/22 01:02:23;;;;;;;59.53;43.13;;;;;;;7.11;100.00;98465.16;2074120;28;20211;-67
2022/04/22 01:03:29;;;;;;;56.90;41.07;;;;;;;7.08;100.00;98460.44;2073915;28;20185;-67
2022/04/22 01:09:51;;;;;;;59.72;42.58;;;;;;;7.06;100.00;98463.38;2073948;28;20556;-67
2022/04/22 01:10:53;;;;;;;56.17;41.70;;;;;;;7.04;100.00;98456.78;2065086;28;20236;-67
2022/04/22 01:11:56;;;;;;;59.08;43.00;;;;;;;7.03;100.00;98466.59;2065295;28;20224;-67
2022/04/22 01:12:59;;;;;;;63.90;43.55;;;;;;;7.03;100.00;98468.44;2073972;28;20196;-67
2022/04/22 01:14:00;;;;;;;59.30;42.22;;;;;;;7.02;100.00;98466.88;2073989;28;20526;-68
2022/04/22 01:15:02;;;;;;;62.25;44.33;;;;;;;7.01;100.00;98466.09;2065131;28;20207;-67
2022/04/22 01:16:04;;;;;;;57.30;42.00;;;;;;;6.99;100.00;98462.94;2065095;28;20196;-67
2022/04/22 01:17:07;;;;;;;57.28;42.15;;;;;;;7.00;100.00;98466.38;2057158;28;20656;-67
2022/04/22 01:18:10;;;;;;;61.90;43.45;;;;;;;7.00;100.00;98463.72;2065617;28;20201;-67
2022/04/22 01:19:13;;;;;;;54.13;41.30;;;;;;;7.00;100.00;98466.38;2074075;28;20184;-67
2022/04/22 01:20:16;;;;;;;59.50;42.20;;;;;;;7.00;100.00;98469.03;2074004;28;20271;-67
2022/04/22 01:21:19;;;;;;;60.65;43.13;;;;;;;6.99;100.00;98462.16;2073514;28;20303;-67
2022/04/22 01:22:20;;;;;;;63.20;43.45;;;;;;;7.00;100.00;98464.50;2065163;28;20292;-67
2022/04/22 01:23:21;;;;;;;53.80;40.70;;;;;;;7.00;100.00;98469.03;2065531;28;20644;-68
2022/04/22 01:24:23;;;;;;;65.80;43.88;;;;;;;7.00;100.00;98469.03;2065098;28;20568;-67
2022/04/22 01:25:26;;;;;;;59.65;44.00;;;;;;;7.01;100.00;98481.22;2057069;28;20767;-68
2022/04/22 01:26:27;;;;;;;64.57;44.03;;;;;;;7.02;100.00;98474.81;2065544;28;20204;-67
2022/04/22 01:27:30;;;;;;;68.43;45.73;;;;;;;7.01;100.00;98475.91;2065109;28;20284;-68
2022/04/22 01:28:31;;;;;;;65.05;44.50;;;;;;;7.02;100.00;98474.81;2065309;28;20200;-67
2022/04/22 01:29:33;;;;;;;61.33;44.70;;;;;;;7.05;100.00;98466.31;2065212;28;20199;-68
2022/04/22 01:30:33;;;;;;;62.53;45.88;;;;;;;7.05;100.00;98471.63;2065128;28;20472;-67
2022/04/22 01:31:36;;;;;;;66.83;45.17;;;;;;;7.05;100.00;98477.72;2073848;28;20189;-66
2022/04/22 01:32:39;;;;;;;66.75;47.13;;;;;;;7.07;100.00;98474.78;2064607;28;20277;-67
2022/04/22 01:33:41;;;;;;;65.45;45.90;;;;;;;7.11;100.00;98470.47;2065436;28;20200;-67
2022/04/22 01:34:42;;;;;;;66.70;45.67;;;;;;;7.10;100.00;98466.22;2065059;28;20204;-67
2022/04/22 01:35:45;;;;;;;58.10;42.07;;;;;;;7.12;100.00;98477.34;2056156;28;20205;-68
2022/04/22 01:36:47;;;;;;;64.15;45.42;;;;;;;7.12;100.00;98472.03;2056884;28;20272;-67
2022/04/22 01:37:49;;;;;;;63.75;45.28;;;;;;;7.13;100.00;98464.88;2065153;28;20197;-67
2022/04/22 01:38:50;;;;;;;63.50;44.20;;;;;;;7.13;100.00;98463.03;2065012;28;20200;-67
2022/04/22 01:39:52;;;;;;;60.15;44.28;;;;;;;7.11;100.00;98457.19;2065032;28;20232;-67
2022/04/22 01:40:54;;;;;;;59.17;41.90;;;;;;;7.13;100.00;98448.97;2065018;28;20229;-67
2022/04/22 01:41:56;;;;;;;58.85;41.67;;;;;;;7.11;100.00;98448.44;2073446;28;20271;-67
2022/04/22 01:42:57;;;;;;;59.80;43.38;;;;;;;7.11;100.00;98459.84;2073843;28;20200;-67
2022/04/22 01:43:58;;;;;;;56.83;41.90;;;;;;;7.09;100.00;98452.19;2065045;28;20253;-67
2022/04/22 01:45:01;;;;;;;58.55;41.70;;;;;;;7.09;100.00;98462.78;2065179;28;20192;-67
2022/04/22 01:46:05;;;;;;;58.60;40.85;;;;;;;7.07;100.00;98450.91;2073814;28;20257;-67
2022/04/22 01:47:07;;;;;;;61.38;42.35;;;;;;;7.07;100.00;98461.50;2064950;28;20267;-67
2022/04/22 01:48:09;;;;;;;59.38;41.40;;;;;;;7.04;100.00;98457.56;2057346;28;20595;-67
2022/04/22 01:49:09;;;;;;;60.50;41.63;;;;;;;7.04;100.00;98456.78;2065362;28;20193;-67
2022/04/22 01:50:11;;;;;;;60.70;41.60;;;;;;;7.04;100.00;98462.09;2064960;28;20205;-67
2022/04/22 01:51:12;;;;;;;59.95;41.78;;;;;;;7.01;100.00;98462.66;2056515;28;20229;-67
2022/04/22 01:52:18;;;;;;;60.13;42.10;;;;;;;7.01;100.00;98460.00;2064663;28;20245;-66
2022/04/22 01:53:19;;;;;;;55.83;41.85;;;;;;;7.01;100.00;98462.66;2065504;28;20691;-67
2022/04/22 01:54:21;;;;;;;62.92;43.45;;;;;;;7.01;100.00;98457.34;2065032;28;20188;-67
2022/04/22 01:55:22;;;;;;;55.90;42.00;;;;;;;7.00;100.00;98458.41;2065154;28;20204;-67
2022/04/22 01:56:24;;;;;;;60.72;41.95;;;;;;;7.00;100.00;98448.59;2073754;28;20229;-67
2022/04/22 01:57:24;;;;;;;59.22;42.88;;;;;;;6.98;100.00;98445.47;2064989;28;20205;-67
2022/04/22 01:58:26;;;;;;;58.97;41.83;;;;;;;7.00;100.00;98458.41;2065231;28;20651;-67
2022/04/22 01:59:27;;;;;;;61.45;43.28;;;;;;;7.00;100.00;98455.78;2073869;28;20189;-67
2022/04/22 02:00:29;;;;;;;59.77;42.73;;;;;;;7.00;100.00;98463.72;2064842;28;20268;-67
2022/04/22 02:01:31;;;;;;;57.88;41.67;;;;;;;6.99;100.00;98462.16;2065130;28;20954;-67
2022/04/22 02:02:32;;;;;;;62.78;42.75;;;;;;;6.98;100.00;98464.00;2074189;28;20192;-67
2022/04/22 02:03:34;;;;;;;62.22;42.97;;;;;;;7.00;100.00;98453.13;2075190;28;20188;-67
2022/04/22 02:04:34;;;;;;;63.05;42.90;;;;;;;6.98;100.00;98457.94;2075225;28;20681;-67
2022/04/22 02:05:36;;;;;;;56.27;42.20;;;;;;;6.99;100.00;98456.84;2075264;28;20609;-67
2022/04/22 02:06:37;;;;;;;67.32;43.83;;;;;;;6.99;100.00;98454.19;2065970;28;20648;-67
2022/04/22 02:07:46;;;;;;;60.33;42.60;;;;;;;6.96;100.00;98447.63;2067379;28;20256;-66
2022/04/22 02:08:47;;;;;;;58.58;42.17;;;;;;;6.98;100.00;98444.66;2075133;28;20666;-67
2022/04/22 02:09:49;;;;;;;57.67;43.60;;;;;;;6.99;100.00;98451.53;2066383;28;20646;-67
2022/04/22 02:10:50;;;;;;;61.95;44.30;;;;;;;6.99;100.00;98446.25;2066557;28;20280;-67
2022/04/22 02:11:51;;;;;;;62.60;43.83;;;;;;;6.99;100.00;98440.94;2075140;28;20192;-68
2022/04/22 02:12:52;;;;;;;65.55;44.72;;;;;;;6.97;100.00;98445.75;2066007;28;20236;-66
2022/04/22 02:13:54;;;;;;;58.97;42.70;;;;;;;6.97;100.00;98443.09;2058319;28;20201;-67
2022/04/22 02:14:56;;;;;;;56.33;41.78;;;;;;;6.98;100.00;98439.38;2058346;28;20220;-66
2022/04/22 02:15:58;;;;;;;63.25;42.90;;;;;;;6.93;100.00;98434.91;2058533;28;20198;-67
2022/04/22 02:16:59;;;;;;;55.15;42.08;;;;;;;6.96;100.00;98444.97;2058395;28;20198;-67
2022/04/22 02:18:00;;;;;;;61.30;43.53;;;;;;;6.96;100.00;98441.53;2058320;28;20675;-66
2022/04/22 02:19:01;;;;;;;63.10;43.63;;;;;;;6.95;100.00;98445.22;2066527;28;20568;-66
2022/04/22 02:20:05;;;;;;;60.47;43.13;;;;;;;6.94;100.00;98443.66;2075193;28;20220;-67
2022/04/22 02:21:07;;;;;;;61.38;42.28;;;;;;;6.92;100.00;98435.97;2074422;28;20269;-67
2022/04/22 02:22:14;;;;;;;57.38;42.05;;;;;;;6.93;100.00;98439.44;2075194;28;20640;-67
2022/04/22 02:23:17;;;;;;;54.67;42.25;;;;;;;6.94;100.00;98438.34;2075111;28;20208;-66
2022/04/22 02:24:18;;;;;;;61.05;43.65;;;;;;;6.93;100.00;98437.56;2066217;28;20197;-67
2022/04/22 02:25:19;;;;;;;58.67;41.97;;;;;;;6.93;100.00;98431.47;2066521;28;20197;-67
2022/04/22 02:26:21;;;;;;;58.80;42.30;;;;;;;6.91;100.00;98433.63;2075034;28;20192;-67
2022/04/22 02:28:43;;;;;;;62.60;42.10;;;;;;;6.89;100.00;98431.25;2066266;28;20268;-68
2022/04/22 02:29:44;;;;;;;62.30;44.30;;;;;;;6.90;100.00;98437.34;2066449;28;20194;-67
2022/04/22 02:30:46;;;;;;;62.63;43.73;;;;;;;6.90;100.00;98432.06;2074995;28;20319;-67
2022/04/22 02:31:46;;;;;;;60.25;43.90;;;;;;;6.90;100.00;98430.19;2075204;28;20188;-67
2022/04/22 02:32:48;;;;;;;59.30;43.67;;;;;;;6.92;100.00;98427.25;2066172;28;20201;-67
2022/04/22 02:33:49;;;;;;;63.67;43.35;;;;;;;6.89;100.00;98423.31;2066475;28;20204;-67
2022/04/22 02:34:51;;;;;;;58.40;43.03;;;;;;;6.89;100.00;98427.81;2074990;28;20710;-67
2022/04/22 02:35:54;;;;;;;62.38;43.58;;;;;;;6.90;100.00;98432.06;2065766;28;20197;-67
2022/04/22 02:36:56;;;;;;;62.72;43.83;;;;;;;6.88;100.00;98429.69;2058274;28;20300;-67
2022/04/22 02:37:57;;;;;;;57.97;41.85;;;;;;;6.88;100.00;98428.91;2066357;28;20190;-67
2022/04/22 02:39:00;;;;;;;61.23;41.50;;;;;;;6.91;100.00;98439.72;2074919;28;20193;-67
2022/04/22 02:40:01;;;;;;;60.42;42.97;;;;;;;6.89;100.00;98425.97;2075113;28;20196;-66
2022/04/22 02:46:21;;;;;;;65.63;42.72;;;;;;;6.90;100.00;98426.75;2075020;28;20179;-67
2022/04/22 02:47:21;;;;;;;70.15;46.17;;;;;;;6.87;100.00;98425.47;2074877;28;20188;-67
2022/04/22 02:48:26;;;;;;;68.73;47.33;;;;;;;6.89;100.00;98425.97;2066083;28;20204;-66
2022/04/22 02:49:28;;;;;;;67.30;46.55;;;;;;;6.90;100.00;98426.75;2066887;28;20220;-67
2022/04/22 02:50:29;;;;;;;65.00;44.70;;;;;;;6.90;100.00;98432.06;2065589;28;20228;-67
2022/04/22 02:51:31;;;;;;;69.03;46.47;;;;;;;6.90;100.00;98427.53;2065851;28;20232;-68
2022/04/22 02:52:31;;;;;;;65.38;45.85;;;;;;;6.91;100.00;98430.97;2066108;28;20685;-67
2022/04/22 02:53:33;;;;;;;63.73;46.23;;;;;;;6.91;100.00;98428.31;2066302;28;20569;-67
2022/04/22 02:54:35;;;;;;;61.78;45.42;;;;;;;6.94;100.00;98427.75;2066105;28;20205;-67
2022/04/22 02:55:40;;;;;;;66.85;46.97;;;;;;;6.93;100.00;98426.94;2058099;28;20239;-67
2022/04/22 02:56:42;;;;;;;66.50;47.13;;;;;;;6.91;100.00;98415.84;2066596;28;20193;-67
2022/04/22 02:57:45;;;;;;;63.53;45.65;;;;;;;6.94;100.00;98417.13;2066267;28;20197;-67
2022/04/22 02:58:45;;;;;;;63.55;44.80;;;;;;;6.94;100.00;98419.78;2066402;28;20193;-67
2022/04/22 02:59:48;;;;;;;70.23;46.90;;;;;;;6.95;100.00;98421.34;2066013;28;20228;-67
2022/04/22 03:00:49;;;;;;;64.50;45.92;;;;;;;6.96;100.00;98417.66;2066271;28;20228;-67
2022/04/22 03:01:51;;;;;;;68.27;46.60;;;;;;;6.94;100.00;98420.56;2074850;28;20184;-67
2022/04/22 03:02:51;;;;;;;67.40;44.78;;;;;;;6.94;100.00;98417.91;2074967;28;20203;-67
2022/04/22 03:03:53;;;;;;;69.03;45.95;;;;;;;6.94;100.00;98412.63;2074781;28;20188;-66
2022/04/22 03:04:54;;;;;;;68.68;46.80;;;;;;;6.97;100.00;98416.56;2065969;28;20205;-67
2022/04/22 03:05:56;;;;;;;73.13;46.70;;;;;;;6.99;100.00;98414.41;2065595;28;20197;-67
2022/04/22 03:06:57;;;;;;;67.60;46.90;;;;;;;6.97;100.00;98416.56;2074981;28;20193;-67
2022/04/22 03:07:59;;;;;;;69.40;47.30;;;;;;;6.98;100.00;98418.16;2074839;28;20216;-67
2022/04/22 03:09:00;;;;;;;71.45;46.05;;;;;;;6.97;100.00;98417.34;2074805;28;20647;-67
2022/04/22 03:10:03;;;;;;;71.13;47.75;;;;;;;6.96;100.00;98409.69;2074805;28;20192;-67
2022/04/22 03:11:06;;;;;;;68.30;45.83;;;;;;;6.94;100.00;98411.81;2065880;28;20575;-67
2022/04/22 03:12:08;;;;;;;66.25;46.40;;;;;;;6.97;100.00;98413.94;2058013;28;20660;-67
2022/04/22 03:13:09;;;;;;;67.05;46.65;;;;;;;6.95;100.00;98402.78;2066401;28;20220;-67
2022/04/22 03:14:10;;;;;;;62.58;45.83;;;;;;;6.96;100.00;98409.69;2074055;28;20246;-66
2022/04/22 03:15:14;;;;;;;65.50;47.07;;;;;;;6.95;100.00;98400.94;2065921;28;20197;-67
2022/04/22 03:16:18;;;;;;;70.13;47.88;;;;;;;6.94;100.00;98396.69;2066362;28;20220;-67
2022/04/22 03:17:22;;;;;;;65.70;44.65;;;;;;;6.96;100.00;98399.88;2074614;28;20200;-66
2022/04/22 03:18:25;;;;;;;71.18;47.85;;;;;;;6.94;100.00;98396.69;2065573;28;20624;-67
2022/04/22 03:19:26;;;;;;;64.50;44.60;;;;;;;6.96;100.00;98396.44;2065959;28;20201;-66
2022/04/22 03:20:27;;;;;;;66.50;46.07;;;;;;;6.95;100.00;98392.19;2065962;28;20240;-67
2022/04/22 03:21:28;;;;;;;64.72;45.85;;;;;;;6.96;100.00;98399.09;2073929;28;20223;-67
2022/04/22 03:22:30;;;;;;;71.83;46.07;;;;;;;6.96;100.00;98397.22;2074608;28;20226;-67
2022/04/22 03:23:30;;;;;;;70.47;46.17;;;;;;;6.94;100.00;98402.00;2065847;28;20201;-67
2022/04/22 03:24:33;;;;;;;65.93;46.20;;;;;;;6.95;100.00;98397.50;2065968;28;20269;-67
2022/04/22 03:25:36;;;;;;;64.28;45.60;;;;;;;6.95;100.00;98402.78;2074651;28;20192;-67
2022/04/22 03:26:37;;;;;;;67.93;46.85;;;;;;;6.95;100.00;98402.78;2065819;28;20196;-67
2022/04/22 03:27:38;;;;;;;67.07;45.53;;;;;;;6.95;100.00;98408.09;2057808;28;20206;-67
2022/04/22 03:28:40;;;;;;;66.30;46.40;;;;;;;6.96;100.00;98409.69;2057752;28;20777;-67
2022/04/22 03:29:40;;;;;;;67.25;45.75;;;;;;;6.96;100.00;98409.69;2065964;28;20204;-67
2022/04/22 03:30:42;;;;;;;60.03;44.17;;;;;;;6.98;100.00;98412.84;2065640;28;20320;-67
2022/04/22 03:31:45;;;;;;;62.40;43.63;;;;;;;6.98;100.00;98412.84;2066014;28;20189;-67
2022/04/22 03:32:47;;;;;;;66.35;46.00;;;;;;;7.00;100.00;98410.69;2074525;28;20275;-67
2022/04/22 03:33:48;;;;;;;67.35;46.75;;;;;;;6.99;100.00;98404.59;2065724;28;20232;-67
2022/04/22 03:34:49;;;;;;;68.00;46.47;;;;;;;7.02;100.00;98404.00;2057766;28;20197;-66
2022/04/22 03:35:50;;;;;;;64.40;45.75;;;;;;;7.01;100.00;98401.66;2057668;28;20198;-68
2022/04/22 03:36:52;;;;;;;67.00;45.15;;;;;;;6.99;100.00;98398.50;2057198;28;20225;-67
2022/04/22 03:37:55;;;;;;;68.80;47.00;;;;;;;7.02;100.00;98397.91;2057688;28;20208;-67
2022/04/22 03:38:58;;;;;;;67.93;45.75;;;;;;;7.02;100.00;98397.91;2066286;28;20193;-67
2022/04/22 03:39:59;;;;;;;68.78;47.80;;;;;;;7.04;100.00;98401.09;2065797;28;20193;-67
2022/04/22 03:41:02;;;;;;;69.03;48.13;;;;;;;7.03;100.00;98399.50;2057714;28;20228;-68
2022/04/22 03:42:03;;;;;;;70.18;47.45;;;;;;;7.04;100.00;98401.88;2065944;28;20636;-67
2022/04/22 03:43:05;;;;;;;66.22;45.38;;;;;;;7.04;100.00;98401.88;2074561;28;20271;-67
2022/04/22 03:44:07;;;;;;;68.38;47.45;;;;;;;7.04;100.00;98404.53;2065728;28;20747;-67
2022/04/22 03:45:11;;;;;;;68.97;46.78;;;;;;;7.04;100.00;98404.53;2066148;28;20189;-67
2022/04/22 03:46:13;;;;;;;72.68;47.33;;;;;;;7.05;100.00;98394.72;2065611;28;20197;-67
2022/04/22 03:47:14;;;;;;;64.07;45.25;;;;;;;7.04;100.00;98396.56;2057675;28;20252;-67
2022/04/22 03:48:16;;;;;;;67.67;46.97;;;;;;;7.05;100.00;98398.16;2057748;28;20194;-67
2022/04/22 03:49:17;;;;;;;68.07;45.17;;;;;;;7.06;100.00;98399.72;2065952;28;20428;-67
2022/04/22 03:50:19;;;;;;;67.83;47.03;;;;;;;7.06;100.00;98396.28;2074588;28;20702;-67
2022/04/22 03:51:20;;;;;;;68.63;47.67;;;;;;;7.04;100.00;98391.28;2065123;28;20711;-67
2022/04/22 03:52:22;;;;;;;66.63;47.00;;;;;;;7.04;100.00;98393.91;2065678;28;20618;-67
2022/04/22 03:53:23;;;;;;;69.82;47.15;;;;;;;7.08;100.00;98394.13;2066001;28;20193;-67
2022/04/22 03:54:25;;;;;;;72.20;47.93;;;;;;;7.12;100.00;98392.44;2065589;28;20228;-67
2022/04/22 03:55:26;;;;;;;68.57;47.53;;;;;;;7.14;100.00;98395.63;2057689;28;20746;-67
2022/04/22 03:59:08;;;;;;;70.53;48.30;;;;;;;7.19;100.00;98395.53;2065585;28;20185;-68
2022/04/22 04:00:10;;;;;;;70.88;46.90;;;;;;;7.14;100.00;98398.28;2057575;28;20197;-67
2022/04/22 04:01:12;;;;;;;70.28;47.83;;;;;;;7.15;100.00;98399.84;2057643;28;20648;-67
2022/04/22 04:02:13;;;;;;;76.10;48.00;;;;;;;7.12;100.00;98397.75;2057543;28;20326;-67
2022/04/22 04:03:16;;;;;;;73.67;48.40;;;;;;;7.13;100.00;98396.72;2065512;28;20688;-66
2022/04/22 04:04:19;;;;;;;73.18;48.92;;;;;;;7.23;100.00;98393.88;2073746;28;20250;-67
2022/04/22 04:05:23;;;;;;;71.85;47.15;;;;;;;7.22;100.00;98396.84;2065575;28;20679;-67
2022/04/22 04:06:28;;;;;;;67.80;48.13;;;;;;;7.16;100.00;98398.78;2065601;28;20212;-67
2022/04/22 04:07:31;;;;;;;67.78;48.58;;;;;;;7.12;100.00;98387.16;2065536;28;20189;-67
2022/04/22 04:08:32;;;;;;;72.45;49.40;;;;;;;7.09;100.00;98399.13;2065900;28;20193;-67
2022/04/22 04:16:32;;;;;;;71.30;46.83;;;;;;;7.04;100.00;98409.03;2053405;28;20190;-66
2022/04/22 04:17:35;;;;;;;70.32;48.35;;;;;;;6.99;100.00;98398.50;2057100;28;20609;-67
2022/04/22 04:18:38;;;;;;;73.90;50.20;;;;;;;7.04;100.00;98406.41;2048419;29;20229;-67
2022/04/22 04:23:38;;;;;;;74.18;48.78;;;;;;;7.09;100.00;98399.13;2049156;29;20305;-67
2022/04/22 04:24:40;;;;;;;69.43;48.33;;;;;;;7.10;100.00;98397.25;2069048;28;20287;-67
2022/04/22 04:25:43;;;;;;;73.38;49.17;;;;;;;7.10;100.00;98394.59;2064857;28;20208;-67
2022/04/22 04:26:45;;;;;;;75.38;49.40;;;;;;;7.11;100.00;98398.03;2057040;28;20193;-67
2022/04/22 04:27:47;;;;;;;72.05;49.60;;;;;;;7.14;100.00;98400.16;2057318;28;20304;-67
2022/04/22 04:28:50;;;;;;;75.93;49.05;;;;;;;7.15;100.00;98402.50;2065601;28;20196;-67
2022/04/22 04:29:51;;;;;;;78.78;50.28;;;;;;;7.16;100.00;98398.78;2064439;28;20227;-67
2022/04/22 04:30:53;;;;;;;80.07;49.53;;;;;;;7.20;100.00;98415.66;2057170;28;20237;-67
2022/04/22 04:31:55;;;;;;;73.00;49.80;;;;;;;7.22;100.00;98408.22;2057378;28;20265;-67
2022/04/22 04:33:00;;;;;;;79.93;51.13;;;;;;;7.22;100.00;98412.75;2057167;28;20197;-68
2022/04/22 04:34:01;;;;;;;78.32;50.90;;;;;;;7.24;100.00;98416.69;2057732;28;20212;-67
2022/04/22 04:35:02;;;;;;;77.90;52.70;;;;;;;7.25;100.00;98415.59;2065326;28;20275;-66
2022/04/22 04:36:06;;;;;;;74.22;52.03;;;;;;;7.28;100.00;98420.31;2064871;28;20200;-67
2022/04/22 04:37:07;;;;;;;72.70;50.80;;;;;;;7.31;100.00;98421.63;2065472;28;20703;-67
2022/04/22 04:38:09;;;;;;;71.28;49.58;;;;;;;7.31;100.00;98421.63;2065491;28;20189;-67
2022/04/22 04:39:13;;;;;;;71.43;50.00;;;;;;;7.29;100.00;98419.25;2074041;28;20203;-67
2022/04/22 04:40:15;;;;;;;77.43;50.95;;;;;;;7.30;100.00;98420.06;2074232;28;20188;-66
2022/04/22 04:41:17;;;;;;;83.93;51.83;;;;;;;7.30;100.00;98412.88;2065193;28;20634;-67
2022/04/22 04:42:21;;;;;;;80.70;52.00;;;;;;;7.30;100.00;98415.53;2065435;28;20193;-67
2022/04/22 04:43:24;;;;;;;80.03;51.53;;;;;;;7.33;100.00;98414.94;2074226;28;20271;-68
2022/04/22 04:44:25;;;;;;;72.40;49.90;;;;;;;7.35;100.00;98406.69;2065418;28;20212;-67
2022/04/22 04:45:28;;;;;;;71.25;50.70;;;;;;;7.36;100.00;98409.03;2057251;28;20197;-66
2022/04/22 04:46:30;;;;;;;75.43;51.25;;;;;;;7.40;100.00;98416.44;2065275;28;20554;-67
2022/04/22 04:47:38;;;;;;;72.28;51.00;;;;;;;7.38;100.00;98411.41;2057236;28;20202;-67
2022/04/22 04:48:42;;;;;;;70.68;49.92;;;;;;;7.42;100.00;98412.41;2057906;28;20205;-68
2022/04/22 04:49:45;;;;;;;78.38;50.90;;;;;;;7.43;100.00;98415.84;2065658;28;20264;-67
2022/04/22 04:50:49;;;;;;;73.57;49.60;;;;;;;7.46;100.00;98415.25;2065196;28;20284;-67
2022/04/22 04:51:49;;;;;;;81.05;50.60;;;;;;;7.46;100.00;98417.91;2057103;28;20225;-67
2022/04/22 04:52:52;;;;;;;70.90;47.60;;;;;;;7.49;100.00;98427.97;2065305;28;20279;-67
2022/04/22 04:53:55;;;;;;;75.70;49.72;;;;;;;7.54;100.00;98414.59;2064825;28;20235;-67
2022/04/22 04:54:57;;;;;;;73.50;49.63;;;;;;;7.54;100.00;98422.56;2057305;28;20233;-67
2022/04/22 04:55:59;;;;;;;70.82;48.60;;;;;;;7.55;100.00;98418.81;2065353;28;20332;-67
2022/04/22 04:57:00;;;;;;;64.95;46.50;;;;;;;7.57;100.00;98424.66;2065169;28;20193;-67
2022/04/22 04:58:02;;;;;;;70.33;47.97;;;;;;;7.55;100.00;98424.13;2065410;28;20191;-67
2022/04/22 04:59:04;;;;;;;73.80;49.92;;;;;;;7.56;100.00;98426.53;2073294;28;20250;-67
2022/04/22 05:00:08;;;;;;;70.93;47.53;;;;;;;7.56;100.00;98423.06;2073464;28;20592;-67
2022/04/22 05:01:10;;;;;;;74.45;47.88;;;;;;;7.59;100.00;98435.75;2073951;28;20188;-67
2022/04/22 05:02:11;;;;;;;67.50;47.80;;;;;;;7.62;100.00;98437.81;2065176;28;20213;-67
2022/04/22 05:03:14;;;;;;;77.28;49.45;;;;;;;7.62;100.00;98433.28;2057233;28;20202;-67
2022/04/22 05:04:17;;;;;;;68.85;48.42;;;;;;;7.61;100.00;98437.03;2057229;28;20205;-67
2022/04/22 05:05:19;;;;;;;70.65;48.25;;;;;;;7.62;100.00;98433.28;2065770;28;20198;-67
2022/04/22 05:06:22;;;;;;;71.53;48.40;;;;;;;7.68;100.00;98441.97;2064738;28;20702;-67
2022/04/22 05:07:24;;;;;;;71.85;49.72;;;;;;;7.65;100.00;98427.41;2065567;28;20200;-67
2022/04/22 05:08:26;;;;;;;69.57;47.53;;;;;;;7.68;100.00;98431.34;2073916;28;20243;-67
2022/04/22 05:09:28;;;;;;;67.95;47.97;;;;;;;7.67;100.00;98434.31;2073949;28;20254;-67
2022/04/22 05:10:33;;;;;;;67.53;46.75;;;;;;;7.67;100.00;98442.28;2064817;28;20200;-67
2022/04/22 05:11:34;;;;;;;70.65;48.60;;;;;;;7.68;100.00;98436.66;2057467;28;20220;-67